| |
Missouri Department of Transportation

Social Media Facebook Twitter Flickr Instagram YouTube RSS

Current METAR Information for All MoDOT Locations 
AWOS Home
Current METAR for all Airports
Glossary - Disclaimer


Location Current METAR Record
Boonville METAR KVER 210420Z AUTO 19003KT 10SM SCT047 21/ A2980 RMK AO2 T0211
Branson METAR KBBG 210420Z AUTO 00000KT 9SM CLR 20/20 A2989 RMK AO2
Branson West METAR KFWB 210415Z AUTO 24003KT 10SM BKN009 OVC016 21/21 A2989 RMK AO2
Camdenton METAR KOZS 210420Z AUTO 21004KT 10SM CLR 20/20 A2985 RMK AO2
Clinton METAR KGLY 210415Z AUTO 18005KT 10SM CLR 21/21 A2982 RMK AO2
Hannibal METAR KHAE 210405Z AUTO 21004KT 10SM SCT050 SCT060 21/19 A2979 RMK AO2
Harrisonville METAR KLRY 210420Z AUTO 00000KT 10SM CLR 23/18 A2983 RMK AO2
Lebanon METAR KLBO 210420Z AUTO 21004KT 10SM CLR 20/20 A2988 RMK AO2
Malden METAR KMAW 210430Z AUTO 21006KT 10SM DZ SCT009 SCT013 22/20 A2989 RMK AO2
Marshall METAR KMHL 210435Z AUTO 00000KT 7SM CLR 22/21 A2980 RMK AO2
Maryville METAR KEVU 210419Z AUTO 26009KT 10SM BKN025 19/13 A2980 RMK AO2
Mexico METAR KMYJ 210420Z AUTO 21007KT 10SM CLR 19/18 A2981 RMK AO2
Moberly METAR KMBY 210424Z AUTO 20007KT 10SM SCT003 21/18 A2980 RMK AO2
Mosby METAR KGPH 210428Z AUTO 00000KT 10SM CLR 19/18 A2980 RMK AO2 LTG DSNT SW
Sikeston METAR KSIK 210445Z AUTO 21009G14KT 10SM DZ SCT003 BKN010 BKN013 23/21 A2987 RMK AO2
Warrensburg METAR KRCM 210425Z AUTO 18006KT 10SM SCT055 21/20 A2980 RMK AO2
Warsaw METAR KRAW 210419Z AUTO 18004KT 10SM CLR A2983 RMK AO2
Washington METAR KFYG 210355Z AUTO 17005KT 10SM BKN022 OVC036 23/21 A2981 RMK AO2
About Us
How Do I...
Contact Us
Missouri Department of Transportation
Central Office
105 W. Capitol Avenue
Jefferson City, MO 65102
1-888-ASK-MODOT (275-6636)
1-866-831-6277 (Motor Carrier Services)
Driver's License Offices
horz_bar
| | |
Missouri State Government
© 2013 Missouri Department of Transportation. All Rights Reserved.   Privacy Policy.
 
 
 
 
RSS FeedYoutubeBlogFlickrTwitter Facebook